sensor_id;sensor_type;location;lat;lon;timestamp;P1;durP1;ratioP1;P2;durP2;ratioP2
20906;SDS011;10613;50.966;5.814;2023-06-14T00:00:38;14.00;;;13.00;;
20906;SDS011;10613;50.966;5.814;2023-06-14T00:04:49;13.00;;;13.00;;
20906;SDS011;10613;50.966;5.814;2023-06-14T00:08:57;14.50;;;12.50;;
20906;SDS011;10613;50.966;5.814;2023-06-14T00:13:04;12.25;;;12.25;;
20906;SDS011;10613;50.966;5.814;2023-06-14T00:17:11;16.00;;;12.00;;
20906;SDS011;10613;50.966;5.814;2023-06-14T00:21:18;12.25;;;12.25;;
20906;SDS011;10613;50.966;5.814;2023-06-14T00:25:26;14.50;;;12.50;;
20906;SDS011;10613;50.966;5.814;2023-06-14T00:29:32;12.75;;;12.75;;
20906;SDS011;10613;50.966;5.814;2023-06-14T00:33:39;13.00;;;12.00;;
20906;SDS011;10613;50.966;5.814;2023-06-14T00:37:46;13.25;;;11.50;;
20906;SDS011;10613;50.966;5.814;2023-06-14T00:41:53;15.00;;;15.00;;
20906;SDS011;10613;50.966;5.814;2023-06-14T00:46:00;12.00;;;12.00;;
20906;SDS011;10613;50.966;5.814;2023-06-14T00:50:08;16.50;;;16.50;;
20906;SDS011;10613;50.966;5.814;2023-06-14T00:54:16;17.00;;;16.00;;
20906;SDS011;10613;50.966;5.814;2023-06-14T00:58:23;13.25;;;12.25;;
20906;SDS011;10613;50.966;5.814;2023-06-14T01:02:29;11.75;;;11.75;;
20906;SDS011;10613;50.966;5.814;2023-06-14T01:11:05;16.25;;;14.50;;
20906;SDS011;10613;50.966;5.814;2023-06-14T01:15:13;18.50;;;17.50;;
20906;SDS011;10613;50.966;5.814;2023-06-14T01:19:20;14.75;;;11.75;;
20906;SDS011;10613;50.966;5.814;2023-06-14T01:23:28;14.25;;;14.25;;
20906;SDS011;10613;50.966;5.814;2023-06-14T01:27:38;17.00;;;15.00;;
20906;SDS011;10613;50.966;5.814;2023-06-14T01:31:45;16.25;;;16.25;;
20906;SDS011;10613;50.966;5.814;2023-06-14T01:35:53;14.50;;;14.50;;
20906;SDS011;10613;50.966;5.814;2023-06-14T01:40:04;17.50;;;16.75;;
20906;SDS011;10613;50.966;5.814;2023-06-14T01:44:13;13.00;;;12.00;;
20906;SDS011;10613;50.966;5.814;2023-06-14T01:48:21;14.75;;;14.75;;
20906;SDS011;10613;50.966;5.814;2023-06-14T01:52:29;11.25;;;11.25;;
20906;SDS011;10613;50.966;5.814;2023-06-14T01:56:37;12.50;;;12.50;;
20906;SDS011;10613;50.966;5.814;2023-06-14T02:00:44;13.25;;;13.25;;
20906;SDS011;10613;50.966;5.814;2023-06-14T02:04:51;13.50;;;13.50;;
20906;SDS011;10613;50.966;5.814;2023-06-14T02:08:58;12.75;;;11.50;;
20906;SDS011;10613;50.966;5.814;2023-06-14T02:13:05;16.25;;;13.50;;
20906;SDS011;10613;50.966;5.814;2023-06-14T02:17:13;15.25;;;12.00;;
20906;SDS011;10613;50.966;5.814;2023-06-14T02:21:20;12.00;;;12.00;;
20906;SDS011;10613;50.966;5.814;2023-06-14T02:25:27;16.25;;;14.75;;
20906;SDS011;10613;50.966;5.814;2023-06-14T02:29:36;16.50;;;15.75;;
20906;SDS011;10613;50.966;5.814;2023-06-14T02:33:44;19.25;;;19.25;;
20906;SDS011;10613;50.966;5.814;2023-06-14T02:37:51;15.50;;;15.50;;
20906;SDS011;10613;50.966;5.814;2023-06-14T02:41:58;15.75;;;15.00;;
20906;SDS011;10613;50.966;5.814;2023-06-14T02:46:05;16.00;;;16.00;;
20906;SDS011;10613;50.966;5.814;2023-06-14T02:50:12;15.75;;;14.50;;
20906;SDS011;10613;50.966;5.814;2023-06-14T02:54:19;15.25;;;15.25;;
20906;SDS011;10613;50.966;5.814;2023-06-14T02:58:26;16.00;;;14.75;;
20906;SDS011;10613;50.966;5.814;2023-06-14T03:02:34;18.50;;;16.75;;
20906;SDS011;10613;50.966;5.814;2023-06-14T03:06:47;16.50;;;16.50;;
20906;SDS011;10613;50.966;5.814;2023-06-14T03:11:02;15.50;;;15.50;;
20906;SDS011;10613;50.966;5.814;2023-06-14T03:15:10;16.25;;;16.00;;
20906;SDS011;10613;50.966;5.814;2023-06-14T03:19:22;15.00;;;15.00;;
20906;SDS011;10613;50.966;5.814;2023-06-14T03:23:30;16.00;;;16.00;;
20906;SDS011;10613;50.966;5.814;2023-06-14T03:27:38;15.75;;;15.75;;
20906;SDS011;10613;50.966;5.814;2023-06-14T03:31:59;15.75;;;13.25;;
20906;SDS011;10613;50.966;5.814;2023-06-14T03:36:11;17.50;;;17.50;;
20906;SDS011;10613;50.966;5.814;2023-06-14T03:40:18;15.50;;;15.50;;
20906;SDS011;10613;50.966;5.814;2023-06-14T03:44:31;17.25;;;17.00;;
20906;SDS011;10613;50.966;5.814;2023-06-14T03:48:38;15.75;;;15.00;;
20906;SDS011;10613;50.966;5.814;2023-06-14T03:52:47;18.25;;;17.75;;
20906;SDS011;10613;50.966;5.814;2023-06-14T03:56:55;16.75;;;16.75;;
20906;SDS011;10613;50.966;5.814;2023-06-14T04:01:03;18.00;;;17.00;;
20906;SDS011;10613;50.966;5.814;2023-06-14T04:05:10;14.00;;;13.50;;
20906;SDS011;10613;50.966;5.814;2023-06-14T04:09:21;19.25;;;15.75;;
20906;SDS011;10613;50.966;5.814;2023-06-14T04:13:28;18.25;;;18.25;;
20906;SDS011;10613;50.966;5.814;2023-06-14T04:17:36;18.25;;;16.25;;
20906;SDS011;10613;50.966;5.814;2023-06-14T04:21:43;19.00;;;16.50;;
20906;SDS011;10613;50.966;5.814;2023-06-14T04:25:51;17.50;;;17.50;;
20906;SDS011;10613;50.966;5.814;2023-06-14T04:29:58;16.00;;;15.50;;
20906;SDS011;10613;50.966;5.814;2023-06-14T04:34:19;20.50;;;18.00;;
20906;SDS011;10613;50.966;5.814;2023-06-14T04:38:30;16.25;;;15.25;;
20906;SDS011;10613;50.966;5.814;2023-06-14T04:42:42;19.25;;;18.25;;
20906;SDS011;10613;50.966;5.814;2023-06-14T04:46:52;17.50;;;17.50;;
20906;SDS011;10613;50.966;5.814;2023-06-14T04:50:59;17.00;;;15.75;;
20906;SDS011;10613;50.966;5.814;2023-06-14T04:55:06;16.75;;;16.50;;
20906;SDS011;10613;50.966;5.814;2023-06-14T04:59:14;17.00;;;16.75;;
20906;SDS011;10613;50.966;5.814;2023-06-14T05:03:21;17.75;;;17.75;;
20906;SDS011;10613;50.966;5.814;2023-06-14T05:07:28;20.25;;;20.25;;
20906;SDS011;10613;50.966;5.814;2023-06-14T05:11:35;18.50;;;17.00;;
20906;SDS011;10613;50.966;5.814;2023-06-14T05:15:46;16.75;;;15.75;;
20906;SDS011;10613;50.966;5.814;2023-06-14T05:19:54;16.25;;;16.25;;
20906;SDS011;10613;50.966;5.814;2023-06-14T05:24:02;14.25;;;12.75;;
20906;SDS011;10613;50.966;5.814;2023-06-14T05:28:09;14.50;;;14.50;;
20906;SDS011;10613;50.966;5.814;2023-06-14T05:32:16;13.00;;;13.00;;
20906;SDS011;10613;50.966;5.814;2023-06-14T05:36:23;14.75;;;13.75;;
20906;SDS011;10613;50.966;5.814;2023-06-14T05:40:30;17.00;;;16.00;;
20906;SDS011;10613;50.966;5.814;2023-06-14T05:44:37;15.50;;;14.75;;
20906;SDS011;10613;50.966;5.814;2023-06-14T05:48:44;16.00;;;15.00;;
20906;SDS011;10613;50.966;5.814;2023-06-14T05:52:51;15.25;;;15.00;;
20906;SDS011;10613;50.966;5.814;2023-06-14T05:56:58;15.00;;;12.75;;
20906;SDS011;10613;50.966;5.814;2023-06-14T06:01:08;17.25;;;16.75;;
20906;SDS011;10613;50.966;5.814;2023-06-14T06:05:15;16.50;;;16.00;;
20906;SDS011;10613;50.966;5.814;2023-06-14T06:09:22;15.00;;;15.00;;
20906;SDS011;10613;50.966;5.814;2023-06-14T06:13:29;16.00;;;15.25;;
20906;SDS011;10613;50.966;5.814;2023-06-14T06:17:36;17.00;;;17.00;;
20906;SDS011;10613;50.966;5.814;2023-06-14T06:21:43;15.00;;;14.75;;
20906;SDS011;10613;50.966;5.814;2023-06-14T06:25:50;17.25;;;17.00;;
20906;SDS011;10613;50.966;5.814;2023-06-14T06:29:57;15.00;;;15.00;;
20906;SDS011;10613;50.966;5.814;2023-06-14T06:34:04;16.50;;;15.50;;
20906;SDS011;10613;50.966;5.814;2023-06-14T06:38:11;16.25;;;16.25;;
20906;SDS011;10613;50.966;5.814;2023-06-14T06:42:18;15.50;;;14.25;;
20906;SDS011;10613;50.966;5.814;2023-06-14T06:46:25;19.25;;;16.25;;
20906;SDS011;10613;50.966;5.814;2023-06-14T06:50:32;15.75;;;15.00;;
20906;SDS011;10613;50.966;5.814;2023-06-14T06:54:39;14.25;;;14.25;;
20906;SDS011;10613;50.966;5.814;2023-06-14T06:58:46;12.00;;;12.00;;
20906;SDS011;10613;50.966;5.814;2023-06-14T07:02:53;12.25;;;12.25;;
20906;SDS011;10613;50.966;5.814;2023-06-14T07:07:01;14.75;;;12.25;;
20906;SDS011;10613;50.966;5.814;2023-06-14T07:11:08;11.00;;;11.00;;
20906;SDS011;10613;50.966;5.814;2023-06-14T07:15:15;12.00;;;10.75;;
20906;SDS011;10613;50.966;5.814;2023-06-14T07:19:22;14.25;;;13.00;;
20906;SDS011;10613;50.966;5.814;2023-06-14T07:23:29;11.50;;;11.50;;
20906;SDS011;10613;50.966;5.814;2023-06-14T07:27:36;10.75;;;10.75;;
20906;SDS011;10613;50.966;5.814;2023-06-14T07:31:43;12.75;;;11.00;;
20906;SDS011;10613;50.966;5.814;2023-06-14T07:35:50;11.50;;;11.50;;
20906;SDS011;10613;50.966;5.814;2023-06-14T07:39:59;9.50;;;8.50;;
20906;SDS011;10613;50.966;5.814;2023-06-14T07:44:06;11.50;;;11.50;;
20906;SDS011;10613;50.966;5.814;2023-06-14T07:48:13;10.50;;;10.50;;
20906;SDS011;10613;50.966;5.814;2023-06-14T07:52:20;16.00;;;14.25;;
20906;SDS011;10613;50.966;5.814;2023-06-14T07:56:27;10.25;;;8.75;;
20906;SDS011;10613;50.966;5.814;2023-06-14T08:00:34;11.50;;;11.50;;
20906;SDS011;10613;50.966;5.814;2023-06-14T08:04:48;10.50;;;10.00;;
20906;SDS011;10613;50.966;5.814;2023-06-14T08:08:55;9.25;;;9.25;;
20906;SDS011;10613;50.966;5.814;2023-06-14T08:13:02;10.25;;;9.00;;
20906;SDS011;10613;50.966;5.814;2023-06-14T08:17:09;10.00;;;10.00;;
20906;SDS011;10613;50.966;5.814;2023-06-14T08:21:16;12.00;;;12.00;;
20906;SDS011;10613;50.966;5.814;2023-06-14T08:25:23;9.25;;;9.00;;
20906;SDS011;10613;50.966;5.814;2023-06-14T08:29:37;11.00;;;10.75;;
20906;SDS011;10613;50.966;5.814;2023-06-14T08:33:46;10.00;;;9.50;;
20906;SDS011;10613;50.966;5.814;2023-06-14T08:37:53;9.50;;;9.50;;
20906;SDS011;10613;50.966;5.814;2023-06-14T08:42:01;9.00;;;9.00;;
20906;SDS011;10613;50.966;5.814;2023-06-14T08:46:08;9.50;;;9.25;;
20906;SDS011;10613;50.966;5.814;2023-06-14T08:50:19;10.25;;;8.25;;
20906;SDS011;10613;50.966;5.814;2023-06-14T08:54:27;11.00;;;11.00;;
20906;SDS011;10613;50.966;5.814;2023-06-14T08:58:36;8.50;;;8.50;;
20906;SDS011;10613;50.966;5.814;2023-06-14T09:02:44;9.00;;;9.00;;
20906;SDS011;10613;50.966;5.814;2023-06-14T09:06:51;10.00;;;10.00;;
20906;SDS011;10613;50.966;5.814;2023-06-14T09:11:00;9.00;;;9.00;;
20906;SDS011;10613;50.966;5.814;2023-06-14T09:15:07;11.50;;;9.75;;
20906;SDS011;10613;50.966;5.814;2023-06-14T09:19:21;7.25;;;7.25;;
20906;SDS011;10613;50.966;5.814;2023-06-14T09:23:29;8.00;;;8.00;;
20906;SDS011;10613;50.966;5.814;2023-06-14T09:27:39;7.50;;;7.50;;
20906;SDS011;10613;50.966;5.814;2023-06-14T09:31:47;9.00;;;7.00;;
20906;SDS011;10613;50.966;5.814;2023-06-14T09:35:54;9.50;;;7.25;;
20906;SDS011;10613;50.966;5.814;2023-06-14T09:40:01;7.00;;;7.00;;
20906;SDS011;10613;50.966;5.814;2023-06-14T09:44:09;8.25;;;8.00;;
20906;SDS011;10613;50.966;5.814;2023-06-14T09:48:17;5.75;;;5.75;;
20906;SDS011;10613;50.966;5.814;2023-06-14T09:52:26;6.00;;;6.00;;
20906;SDS011;10613;50.966;5.814;2023-06-14T09:56:35;8.00;;;6.25;;
20906;SDS011;10613;50.966;5.814;2023-06-14T10:00:43;7.25;;;7.25;;
20906;SDS011;10613;50.966;5.814;2023-06-14T10:04:55;5.75;;;5.75;;
20906;SDS011;10613;50.966;5.814;2023-06-14T10:09:04;8.50;;;8.50;;
20906;SDS011;10613;50.966;5.814;2023-06-14T10:13:14;4.50;;;4.50;;
20906;SDS011;10613;50.966;5.814;2023-06-14T10:17:30;8.00;;;6.00;;
20906;SDS011;10613;50.966;5.814;2023-06-14T10:25:49;6.00;;;5.75;;
20906;SDS011;10613;50.966;5.814;2023-06-14T10:34:04;6.00;;;6.00;;
20906;SDS011;10613;50.966;5.814;2023-06-14T10:38:11;5.00;;;4.00;;
20906;SDS011;10613;50.966;5.814;2023-06-14T10:42:18;6.00;;;6.00;;
20906;SDS011;10613;50.966;5.814;2023-06-14T10:46:28;4.00;;;4.00;;
20906;SDS011;10613;50.966;5.814;2023-06-14T10:50:35;6.50;;;5.00;;
20906;SDS011;10613;50.966;5.814;2023-06-14T10:54:55;5.00;;;4.00;;
20906;SDS011;10613;50.966;5.814;2023-06-14T10:59:02;5.25;;;5.25;;
20906;SDS011;10613;50.966;5.814;2023-06-14T11:07:51;5.25;;;4.25;;
20906;SDS011;10613;50.966;5.814;2023-06-14T11:12:02;9.75;;;9.75;;
20906;SDS011;10613;50.966;5.814;2023-06-14T11:16:12;6.75;;;6.00;;
20906;SDS011;10613;50.966;5.814;2023-06-14T11:20:19;4.50;;;4.50;;
20906;SDS011;10613;50.966;5.814;2023-06-14T11:24:26;5.50;;;5.50;;
20906;SDS011;10613;50.966;5.814;2023-06-14T11:28:40;6.00;;;4.00;;
20906;SDS011;10613;50.966;5.814;2023-06-14T11:32:47;4.00;;;4.00;;
20906;SDS011;10613;50.966;5.814;2023-06-14T11:36:54;5.00;;;5.00;;
20906;SDS011;10613;50.966;5.814;2023-06-14T11:41:02;5.00;;;4.00;;
20906;SDS011;10613;50.966;5.814;2023-06-14T11:45:10;4.25;;;4.25;;
20906;SDS011;10613;50.966;5.814;2023-06-14T11:49:16;4.50;;;4.50;;
20906;SDS011;10613;50.966;5.814;2023-06-14T11:53:23;5.75;;;4.75;;
20906;SDS011;10613;50.966;5.814;2023-06-14T11:57:31;3.75;;;3.75;;
20906;SDS011;10613;50.966;5.814;2023-06-14T12:01:42;6.75;;;4.00;;
20906;SDS011;10613;50.966;5.814;2023-06-14T12:05:49;4.25;;;4.00;;
20906;SDS011;10613;50.966;5.814;2023-06-14T12:14:04;5.00;;;5.00;;
20906;SDS011;10613;50.966;5.814;2023-06-14T12:18:11;6.00;;;6.00;;
20906;SDS011;10613;50.966;5.814;2023-06-14T12:22:18;4.00;;;4.00;;
20906;SDS011;10613;50.966;5.814;2023-06-14T12:26:25;4.00;;;4.00;;
20906;SDS011;10613;50.966;5.814;2023-06-14T12:30:34;5.75;;;4.75;;
20906;SDS011;10613;50.966;5.814;2023-06-14T12:34:40;4.50;;;4.50;;
20906;SDS011;10613;50.966;5.814;2023-06-14T12:38:47;5.50;;;5.50;;
20906;SDS011;10613;50.966;5.814;2023-06-14T12:42:54;5.00;;;5.00;;
20906;SDS011;10613;50.966;5.814;2023-06-14T12:47:01;4.75;;;4.75;;
20906;SDS011;10613;50.966;5.814;2023-06-14T12:51:08;5.00;;;4.25;;
20906;SDS011;10613;50.966;5.814;2023-06-14T12:55:15;4.75;;;4.75;;
20906;SDS011;10613;50.966;5.814;2023-06-14T12:59:22;5.75;;;5.75;;
20906;SDS011;10613;50.966;5.814;2023-06-14T13:03:29;6.25;;;4.75;;
20906;SDS011;10613;50.966;5.814;2023-06-14T13:07:36;5.00;;;5.00;;
20906;SDS011;10613;50.966;5.814;2023-06-14T13:11:43;4.00;;;4.00;;
20906;SDS011;10613;50.966;5.814;2023-06-14T13:15:52;5.00;;;5.00;;
20906;SDS011;10613;50.966;5.814;2023-06-14T13:19:59;4.00;;;4.00;;
20906;SDS011;10613;50.966;5.814;2023-06-14T13:24:06;4.50;;;4.25;;
20906;SDS011;10613;50.966;5.814;2023-06-14T13:28:13;4.50;;;4.50;;
20906;SDS011;10613;50.966;5.814;2023-06-14T13:32:21;5.00;;;5.00;;
20906;SDS011;10613;50.966;5.814;2023-06-14T13:36:27;4.50;;;4.50;;
20906;SDS011;10613;50.966;5.814;2023-06-14T13:40:34;4.00;;;4.00;;
20906;SDS011;10613;50.966;5.814;2023-06-14T13:44:48;4.50;;;3.50;;
20906;SDS011;10613;50.966;5.814;2023-06-14T13:48:55;3.50;;;3.50;;
20906;SDS011;10613;50.966;5.814;2023-06-14T13:53:02;5.00;;;5.00;;
20906;SDS011;10613;50.966;5.814;2023-06-14T13:57:09;4.50;;;4.50;;
20906;SDS011;10613;50.966;5.814;2023-06-14T14:01:19;3.25;;;3.25;;
20906;SDS011;10613;50.966;5.814;2023-06-14T14:05:26;4.00;;;4.00;;
20906;SDS011;10613;50.966;5.814;2023-06-14T14:09:35;3.00;;;3.00;;
20906;SDS011;10613;50.966;5.814;2023-06-14T14:13:43;3.25;;;3.00;;
20906;SDS011;10613;50.966;5.814;2023-06-14T14:17:50;5.00;;;4.75;;
20906;SDS011;10613;50.966;5.814;2023-06-14T14:21:57;5.75;;;5.75;;
20906;SDS011;10613;50.966;5.814;2023-06-14T14:26:11;11.25;;;7.75;;
20906;SDS011;10613;50.966;5.814;2023-06-14T14:30:18;12.00;;;6.75;;
20906;SDS011;10613;50.966;5.814;2023-06-14T14:34:29;6.25;;;6.25;;
20906;SDS011;10613;50.966;5.814;2023-06-14T14:38:36;6.00;;;5.00;;
20906;SDS011;10613;50.966;5.814;2023-06-14T14:42:43;6.00;;;6.00;;
20906;SDS011;10613;50.966;5.814;2023-06-14T14:46:50;4.00;;;4.00;;
20906;SDS011;10613;50.966;5.814;2023-06-14T14:50:57;4.25;;;4.25;;
20906;SDS011;10613;50.966;5.814;2023-06-14T14:55:04;5.75;;;4.50;;
20906;SDS011;10613;50.966;5.814;2023-06-14T14:59:11;5.25;;;5.00;;
20906;SDS011;10613;50.966;5.814;2023-06-14T15:03:18;4.50;;;4.50;;
20906;SDS011;10613;50.966;5.814;2023-06-14T15:07:29;6.00;;;4.50;;
20906;SDS011;10613;50.966;5.814;2023-06-14T15:11:36;5.75;;;4.00;;
20906;SDS011;10613;50.966;5.814;2023-06-14T15:15:43;5.00;;;5.00;;
20906;SDS011;10613;50.966;5.814;2023-06-14T15:19:50;5.75;;;5.75;;
20906;SDS011;10613;50.966;5.814;2023-06-14T15:23:57;4.00;;;4.00;;
20906;SDS011;10613;50.966;5.814;2023-06-14T15:28:04;5.00;;;5.00;;
20906;SDS011;10613;50.966;5.814;2023-06-14T15:32:13;4.50;;;4.50;;
20906;SDS011;10613;50.966;5.814;2023-06-14T15:36:20;5.75;;;5.75;;
20906;SDS011;10613;50.966;5.814;2023-06-14T15:40:27;7.00;;;7.00;;
20906;SDS011;10613;50.966;5.814;2023-06-14T15:44:35;5.00;;;5.00;;
20906;SDS011;10613;50.966;5.814;2023-06-14T15:48:42;7.00;;;5.25;;
20906;SDS011;10613;50.966;5.814;2023-06-14T15:52:49;5.50;;;5.50;;
20906;SDS011;10613;50.966;5.814;2023-06-14T15:56:56;6.75;;;6.75;;
20906;SDS011;10613;50.966;5.814;2023-06-14T16:01:03;7.00;;;6.00;;
20906;SDS011;10613;50.966;5.814;2023-06-14T16:05:11;5.50;;;5.50;;
20906;SDS011;10613;50.966;5.814;2023-06-14T16:09:17;4.75;;;4.75;;
20906;SDS011;10613;50.966;5.814;2023-06-14T16:13:24;6.25;;;6.25;;
20906;SDS011;10613;50.966;5.814;2023-06-14T16:17:31;7.25;;;7.25;;
20906;SDS011;10613;50.966;5.814;2023-06-14T16:21:38;6.50;;;6.00;;
20906;SDS011;10613;50.966;5.814;2023-06-14T16:25:45;5.25;;;5.25;;
20906;SDS011;10613;50.966;5.814;2023-06-14T16:29:52;5.25;;;5.00;;
20906;SDS011;10613;50.966;5.814;2023-06-14T16:34:00;7.00;;;6.00;;
20906;SDS011;10613;50.966;5.814;2023-06-14T16:38:07;5.00;;;5.00;;
20906;SDS011;10613;50.966;5.814;2023-06-14T16:42:13;4.00;;;4.00;;
20906;SDS011;10613;50.966;5.814;2023-06-14T16:46:27;5.00;;;5.00;;
20906;SDS011;10613;50.966;5.814;2023-06-14T16:50:33;5.00;;;5.00;;
20906;SDS011;10613;50.966;5.814;2023-06-14T16:54:40;4.75;;;4.75;;
20906;SDS011;10613;50.966;5.814;2023-06-14T16:58:48;5.00;;;5.00;;
20906;SDS011;10613;50.966;5.814;2023-06-14T17:02:55;4.25;;;4.25;;
20906;SDS011;10613;50.966;5.814;2023-06-14T17:07:02;5.50;;;5.50;;
20906;SDS011;10613;50.966;5.814;2023-06-14T17:11:10;5.00;;;5.00;;
20906;SDS011;10613;50.966;5.814;2023-06-14T17:15:17;6.50;;;6.50;;
20906;SDS011;10613;50.966;5.814;2023-06-14T17:19:24;5.75;;;5.75;;
20906;SDS011;10613;50.966;5.814;2023-06-14T17:23:31;4.25;;;4.25;;
20906;SDS011;10613;50.966;5.814;2023-06-14T17:27:38;6.25;;;6.25;;
20906;SDS011;10613;50.966;5.814;2023-06-14T17:31:45;5.00;;;5.00;;
20906;SDS011;10613;50.966;5.814;2023-06-14T17:35:52;4.00;;;4.00;;
20906;SDS011;10613;50.966;5.814;2023-06-14T17:39:59;6.00;;;6.00;;
20906;SDS011;10613;50.966;5.814;2023-06-14T17:44:06;7.00;;;7.00;;
20906;SDS011;10613;50.966;5.814;2023-06-14T17:48:13;6.00;;;5.25;;
20906;SDS011;10613;50.966;5.814;2023-06-14T17:52:20;5.00;;;5.00;;
20906;SDS011;10613;50.966;5.814;2023-06-14T17:56:27;6.00;;;6.00;;
20906;SDS011;10613;50.966;5.814;2023-06-14T18:00:34;6.00;;;6.00;;
20906;SDS011;10613;50.966;5.814;2023-06-14T18:04:41;5.50;;;5.00;;
20906;SDS011;10613;50.966;5.814;2023-06-14T18:08:48;6.00;;;6.00;;
20906;SDS011;10613;50.966;5.814;2023-06-14T18:12:55;6.50;;;5.50;;
20906;SDS011;10613;50.966;5.814;2023-06-14T18:17:03;6.00;;;6.00;;
20906;SDS011;10613;50.966;5.814;2023-06-14T18:21:10;6.00;;;6.00;;
20906;SDS011;10613;50.966;5.814;2023-06-14T18:25:17;6.00;;;6.00;;
20906;SDS011;10613;50.966;5.814;2023-06-14T18:29:28;6.25;;;6.25;;
20906;SDS011;10613;50.966;5.814;2023-06-14T18:33:35;5.75;;;5.50;;
20906;SDS011;10613;50.966;5.814;2023-06-14T18:37:42;7.00;;;7.00;;
20906;SDS011;10613;50.966;5.814;2023-06-14T18:41:49;5.00;;;5.00;;
20906;SDS011;10613;50.966;5.814;2023-06-14T18:45:56;5.50;;;5.50;;
20906;SDS011;10613;50.966;5.814;2023-06-14T18:50:03;5.00;;;5.00;;
20906;SDS011;10613;50.966;5.814;2023-06-14T18:54:10;6.25;;;6.25;;
20906;SDS011;10613;50.966;5.814;2023-06-14T18:58:17;5.50;;;5.50;;
20906;SDS011;10613;50.966;5.814;2023-06-14T19:02:24;6.25;;;6.25;;
20906;SDS011;10613;50.966;5.814;2023-06-14T19:06:31;7.50;;;6.00;;
20906;SDS011;10613;50.966;5.814;2023-06-14T19:10:38;6.00;;;6.00;;
20906;SDS011;10613;50.966;5.814;2023-06-14T19:14:45;6.00;;;6.00;;
20906;SDS011;10613;50.966;5.814;2023-06-14T19:18:52;7.00;;;7.00;;
20906;SDS011;10613;50.966;5.814;2023-06-14T19:22:59;6.75;;;6.75;;
20906;SDS011;10613;50.966;5.814;2023-06-14T19:27:07;5.75;;;5.75;;
20906;SDS011;10613;50.966;5.814;2023-06-14T19:31:21;5.75;;;5.75;;
20906;SDS011;10613;50.966;5.814;2023-06-14T19:35:28;6.50;;;6.50;;
20906;SDS011;10613;50.966;5.814;2023-06-14T19:39:35;8.00;;;8.00;;
20906;SDS011;10613;50.966;5.814;2023-06-14T19:43:42;7.00;;;6.00;;
20906;SDS011;10613;50.966;5.814;2023-06-14T19:47:49;7.75;;;7.75;;
20906;SDS011;10613;50.966;5.814;2023-06-14T19:51:56;10.25;;;10.25;;
20906;SDS011;10613;50.966;5.814;2023-06-14T19:56:03;7.00;;;7.00;;
20906;SDS011;10613;50.966;5.814;2023-06-14T20:00:10;8.00;;;8.00;;
20906;SDS011;10613;50.966;5.814;2023-06-14T20:04:17;11.50;;;10.25;;
20906;SDS011;10613;50.966;5.814;2023-06-14T20:08:24;10.00;;;10.00;;
20906;SDS011;10613;50.966;5.814;2023-06-14T20:12:31;11.50;;;11.00;;
20906;SDS011;10613;50.966;5.814;2023-06-14T20:16:38;9.75;;;9.75;;
20906;SDS011;10613;50.966;5.814;2023-06-14T20:20:45;12.00;;;11.75;;
20906;SDS011;10613;50.966;5.814;2023-06-14T20:24:59;11.00;;;11.00;;
20906;SDS011;10613;50.966;5.814;2023-06-14T20:29:06;9.75;;;9.75;;
20906;SDS011;10613;50.966;5.814;2023-06-14T20:33:13;11.75;;;11.75;;
20906;SDS011;10613;50.966;5.814;2023-06-14T20:37:20;12.25;;;11.25;;
20906;SDS011;10613;50.966;5.814;2023-06-14T20:41:27;10.00;;;10.00;;
20906;SDS011;10613;50.966;5.814;2023-06-14T20:45:34;11.00;;;11.00;;
20906;SDS011;10613;50.966;5.814;2023-06-14T20:49:41;9.75;;;9.75;;
20906;SDS011;10613;50.966;5.814;2023-06-14T20:53:49;9.75;;;9.75;;
20906;SDS011;10613;50.966;5.814;2023-06-14T20:57:56;11.00;;;11.00;;
20906;SDS011;10613;50.966;5.814;2023-06-14T21:02:03;9.25;;;9.00;;
20906;SDS011;10613;50.966;5.814;2023-06-14T21:06:10;11.50;;;11.00;;
20906;SDS011;10613;50.966;5.814;2023-06-14T21:10:17;10.00;;;10.00;;
20906;SDS011;10613;50.966;5.814;2023-06-14T21:14:39;12.00;;;11.00;;
20906;SDS011;10613;50.966;5.814;2023-06-14T21:18:46;12.75;;;10.75;;
20906;SDS011;10613;50.966;5.814;2023-06-14T21:23:00;13.00;;;11.50;;
20906;SDS011;10613;50.966;5.814;2023-06-14T21:27:07;11.75;;;11.75;;
20906;SDS011;10613;50.966;5.814;2023-06-14T21:31:14;9.50;;;9.50;;
20906;SDS011;10613;50.966;5.814;2023-06-14T21:35:24;9.75;;;9.75;;
20906;SDS011;10613;50.966;5.814;2023-06-14T21:39:31;9.00;;;9.00;;
20906;SDS011;10613;50.966;5.814;2023-06-14T21:43:38;10.25;;;10.25;;
20906;SDS011;10613;50.966;5.814;2023-06-14T21:47:45;11.25;;;10.75;;
20906;SDS011;10613;50.966;5.814;2023-06-14T21:51:52;10.25;;;10.25;;
20906;SDS011;10613;50.966;5.814;2023-06-14T21:55:59;11.25;;;9.25;;
20906;SDS011;10613;50.966;5.814;2023-06-14T22:00:06;9.00;;;9.00;;
20906;SDS011;10613;50.966;5.814;2023-06-14T22:04:16;9.25;;;9.25;;
20906;SDS011;10613;50.966;5.814;2023-06-14T22:08:23;11.00;;;10.00;;
20906;SDS011;10613;50.966;5.814;2023-06-14T22:12:31;11.00;;;10.50;;
20906;SDS011;10613;50.966;5.814;2023-06-14T22:16:38;11.00;;;9.50;;
20906;SDS011;10613;50.966;5.814;2023-06-14T22:20:45;10.00;;;10.00;;
20906;SDS011;10613;50.966;5.814;2023-06-14T22:24:52;12.00;;;11.50;;
20906;SDS011;10613;50.966;5.814;2023-06-14T22:28:59;13.00;;;12.00;;
20906;SDS011;10613;50.966;5.814;2023-06-14T22:33:12;12.00;;;9.75;;
20906;SDS011;10613;50.966;5.814;2023-06-14T22:37:19;11.00;;;11.00;;
20906;SDS011;10613;50.966;5.814;2023-06-14T22:41:26;12.00;;;9.25;;
20906;SDS011;10613;50.966;5.814;2023-06-14T22:45:34;10.00;;;9.00;;
20906;SDS011;10613;50.966;5.814;2023-06-14T22:49:43;10.00;;;10.00;;
20906;SDS011;10613;50.966;5.814;2023-06-14T22:53:54;11.50;;;9.50;;
20906;SDS011;10613;50.966;5.814;2023-06-14T22:58:01;9.75;;;9.75;;
20906;SDS011;10613;50.966;5.814;2023-06-14T23:02:08;9.00;;;9.00;;
20906;SDS011;10613;50.966;5.814;2023-06-14T23:06:16;10.00;;;8.25;;
20906;SDS011;10613;50.966;5.814;2023-06-14T23:10:23;10.00;;;9.00;;
20906;SDS011;10613;50.966;5.814;2023-06-14T23:14:30;10.25;;;9.25;;
20906;SDS011;10613;50.966;5.814;2023-06-14T23:18:37;8.25;;;7.25;;
20906;SDS011;10613;50.966;5.814;2023-06-14T23:22:44;5.75;;;5.75;;
20906;SDS011;10613;50.966;5.814;2023-06-14T23:26:51;9.50;;;8.50;;
20906;SDS011;10613;50.966;5.814;2023-06-14T23:31:01;11.00;;;9.50;;
20906;SDS011;10613;50.966;5.814;2023-06-14T23:35:09;8.75;;;8.00;;
20906;SDS011;10613;50.966;5.814;2023-06-14T23:39:16;7.50;;;7.50;;
20906;SDS011;10613;50.966;5.814;2023-06-14T23:43:24;9.00;;;8.00;;
20906;SDS011;10613;50.966;5.814;2023-06-14T23:47:32;7.75;;;7.75;;
20906;SDS011;10613;50.966;5.814;2023-06-14T23:51:40;10.00;;;10.00;;
20906;SDS011;10613;50.966;5.814;2023-06-14T23:55:48;8.00;;;8.00;;
20906;SDS011;10613;50.966;5.814;2023-06-14T23:59:59;9.25;;;9.00;;
